sensor_id;sensor_type;location;lat;lon;timestamp;temperature;humidity
80743;SHT31;70142;50.894;6.052;2024-02-16T00:02:07;14.96;62.27
80743;SHT31;70142;50.894;6.052;2024-02-16T00:04:40;15.03;62.11
80743;SHT31;70142;50.894;6.052;2024-02-16T00:07:13;15.08;61.75
80743;SHT31;70142;50.894;6.052;2024-02-16T00:09:46;15.08;61.74
80743;SHT31;70142;50.894;6.052;2024-02-16T00:12:20;15.06;61.86
80743;SHT31;70142;50.894;6.052;2024-02-16T00:14:54;15.12;61.79
80743;SHT31;70142;50.894;6.052;2024-02-16T00:17:30;15.20;61.30
80743;SHT31;70142;50.894;6.052;2024-02-16T00:20:04;15.26;60.81
80743;SHT31;70142;50.894;6.052;2024-02-16T00:22:39;15.23;60.52
80743;SHT31;70142;50.894;6.052;2024-02-16T00:25:12;15.35;60.42
80743;SHT31;70142;50.894;6.052;2024-02-16T00:27:47;15.46;60.43
80743;SHT31;70142;50.894;6.052;2024-02-16T00:30:22;15.39;60.28
80743;SHT31;70142;50.894;6.052;2024-02-16T00:32:55;15.47;60.14
80743;SHT31;70142;50.894;6.052;2024-02-16T00:35:28;15.49;60.42
80743;SHT31;70142;50.894;6.052;2024-02-16T00:38:05;15.50;59.95
80743;SHT31;70142;50.894;6.052;2024-02-16T00:40:38;15.53;59.73
80743;SHT31;70142;50.894;6.052;2024-02-16T00:43:17;15.59;59.53
80743;SHT31;70142;50.894;6.052;2024-02-16T00:45:52;15.66;59.58
80743;SHT31;70142;50.894;6.052;2024-02-16T00:48:25;15.71;59.22
80743;SHT31;70142;50.894;6.052;2024-02-16T00:50:58;15.71;58.81
80743;SHT31;70142;50.894;6.052;2024-02-16T00:53:32;15.73;58.99
80743;SHT31;70142;50.894;6.052;2024-02-16T00:56:06;15.76;59.08
80743;SHT31;70142;50.894;6.052;2024-02-16T00:58:41;15.86;58.97
80743;SHT31;70142;50.894;6.052;2024-02-16T01:01:16;15.90;58.78
80743;SHT31;70142;50.894;6.052;2024-02-16T01:03:49;15.91;58.79
80743;SHT31;70142;50.894;6.052;2024-02-16T01:06:23;15.94;58.67
80743;SHT31;70142;50.894;6.052;2024-02-16T01:08:57;16.00;58.74
80743;SHT31;70142;50.894;6.052;2024-02-16T01:11:30;15.96;59.10
80743;SHT31;70142;50.894;6.052;2024-02-16T01:14:04;15.89;60.50
80743;SHT31;70142;50.894;6.052;2024-02-16T01:16:38;15.76;62.20
80743;SHT31;70142;50.894;6.052;2024-02-16T01:19:12;15.54;64.46
80743;SHT31;70142;50.894;6.052;2024-02-16T01:21:45;15.39;65.36
80743;SHT31;70142;50.894;6.052;2024-02-16T01:24:19;15.32;65.44
80743;SHT31;70142;50.894;6.052;2024-02-16T01:26:53;15.38;64.95
80743;SHT31;70142;50.894;6.052;2024-02-16T01:29:26;15.36;64.80
80743;SHT31;70142;50.894;6.052;2024-02-16T01:32:01;15.38;64.17
80743;SHT31;70142;50.894;6.052;2024-02-16T01:34:34;15.38;64.44
80743;SHT31;70142;50.894;6.052;2024-02-16T01:37:08;15.35;63.47
80743;SHT31;70142;50.894;6.052;2024-02-16T01:39:41;15.44;64.52
80743;SHT31;70142;50.894;6.052;2024-02-16T01:42:14;15.39;63.87
80743;SHT31;70142;50.894;6.052;2024-02-16T01:44:47;15.40;64.14
80743;SHT31;70142;50.894;6.052;2024-02-16T01:47:22;15.44;64.61
80743;SHT31;70142;50.894;6.052;2024-02-16T01:49:55;15.40;63.48
80743;SHT31;70142;50.894;6.052;2024-02-16T01:52:29;15.42;64.07
80743;SHT31;70142;50.894;6.052;2024-02-16T01:55:03;15.47;64.25
80743;SHT31;70142;50.894;6.052;2024-02-16T01:57:39;15.54;64.72
80743;SHT31;70142;50.894;6.052;2024-02-16T02:00:13;15.46;64.18
80743;SHT31;70142;50.894;6.052;2024-02-16T02:02:51;15.39;64.94
80743;SHT31;70142;50.894;6.052;2024-02-16T02:05:24;15.38;64.93
80743;SHT31;70142;50.894;6.052;2024-02-16T02:08:09;15.57;63.49
80743;SHT31;70142;50.894;6.052;2024-02-16T02:10:42;15.49;63.92
80743;SHT31;70142;50.894;6.052;2024-02-16T02:13:16;15.47;64.72
80743;SHT31;70142;50.894;6.052;2024-02-16T02:15:51;15.49;64.31
80743;SHT31;70142;50.894;6.052;2024-02-16T02:18:25;15.47;64.38
80743;SHT31;70142;50.894;6.052;2024-02-16T02:20:59;15.46;64.07
80743;SHT31;70142;50.894;6.052;2024-02-16T02:23:33;15.46;63.98
80743;SHT31;70142;50.894;6.052;2024-02-16T02:26:07;15.56;64.39
80743;SHT31;70142;50.894;6.052;2024-02-16T02:28:40;15.49;64.34
80743;SHT31;70142;50.894;6.052;2024-02-16T02:31:13;15.53;64.47
80743;SHT31;70142;50.894;6.052;2024-02-16T02:33:47;15.60;63.69
80743;SHT31;70142;50.894;6.052;2024-02-16T02:36:20;15.53;63.91
80743;SHT31;70142;50.894;6.052;2024-02-16T02:38:55;15.51;64.28
80743;SHT31;70142;50.894;6.052;2024-02-16T02:41:29;15.35;64.62
80743;SHT31;70142;50.894;6.052;2024-02-16T02:44:03;15.23;65.04
80743;SHT31;70142;50.894;6.052;2024-02-16T02:46:36;15.29;64.92
80743;SHT31;70142;50.894;6.052;2024-02-16T02:49:10;15.33;64.53
80743;SHT31;70142;50.894;6.052;2024-02-16T02:51:43;15.30;64.78
80743;SHT31;70142;50.894;6.052;2024-02-16T02:54:18;15.36;64.47
80743;SHT31;70142;50.894;6.052;2024-02-16T02:56:51;15.43;64.46
80743;SHT31;70142;50.894;6.052;2024-02-16T02:59:25;15.43;64.73
80743;SHT31;70142;50.894;6.052;2024-02-16T03:01:58;15.30;65.11
80743;SHT31;70142;50.894;6.052;2024-02-16T03:04:31;15.38;65.02
80743;SHT31;70142;50.894;6.052;2024-02-16T03:07:05;15.44;64.97
80743;SHT31;70142;50.894;6.052;2024-02-16T03:09:40;15.49;64.91
80743;SHT31;70142;50.894;6.052;2024-02-16T03:12:15;15.53;64.93
80743;SHT31;70142;50.894;6.052;2024-02-16T03:14:48;15.53;64.65
80743;SHT31;70142;50.894;6.052;2024-02-16T03:17:21;15.56;64.83
80743;SHT31;70142;50.894;6.052;2024-02-16T03:19:55;15.57;64.77
80743;SHT31;70142;50.894;6.052;2024-02-16T03:22:28;15.51;65.03
80743;SHT31;70142;50.894;6.052;2024-02-16T03:25:03;15.53;64.98
80743;SHT31;70142;50.894;6.052;2024-02-16T03:27:37;15.49;65.45
80743;SHT31;70142;50.894;6.052;2024-02-16T03:30:11;15.53;64.87
80743;SHT31;70142;50.894;6.052;2024-02-16T03:32:47;15.63;64.89
80743;SHT31;70142;50.894;6.052;2024-02-16T03:35:21;15.74;64.58
80743;SHT31;70142;50.894;6.052;2024-02-16T03:37:54;15.69;64.99
80743;SHT31;70142;50.894;6.052;2024-02-16T03:40:29;15.53;65.25
80743;SHT31;70142;50.894;6.052;2024-02-16T03:43:02;15.56;65.43
80743;SHT31;70142;50.894;6.052;2024-02-16T03:45:36;15.47;65.66
80743;SHT31;70142;50.894;6.052;2024-02-16T03:48:09;15.46;65.69
80743;SHT31;70142;50.894;6.052;2024-02-16T03:50:42;15.49;65.48
80743;SHT31;70142;50.894;6.052;2024-02-16T03:53:15;15.46;65.67
80743;SHT31;70142;50.894;6.052;2024-02-16T03:55:50;15.46;65.78
80743;SHT31;70142;50.894;6.052;2024-02-16T03:58:24;15.42;65.82
80743;SHT31;70142;50.894;6.052;2024-02-16T04:00:57;15.46;65.58
80743;SHT31;70142;50.894;6.052;2024-02-16T04:03:30;15.47;65.53
80743;SHT31;70142;50.894;6.052;2024-02-16T04:06:04;15.47;65.79
80743;SHT31;70142;50.894;6.052;2024-02-16T04:08:37;15.43;65.85
80743;SHT31;70142;50.894;6.052;2024-02-16T04:11:13;15.46;65.88
80743;SHT31;70142;50.894;6.052;2024-02-16T04:13:47;15.51;65.88
80743;SHT31;70142;50.894;6.052;2024-02-16T04:16:21;15.47;66.14
80743;SHT31;70142;50.894;6.052;2024-02-16T04:18:56;15.46;66.01
80743;SHT31;70142;50.894;6.052;2024-02-16T04:21:30;15.42;66.31
80743;SHT31;70142;50.894;6.052;2024-02-16T04:24:04;15.46;66.24
80743;SHT31;70142;50.894;6.052;2024-02-16T04:26:38;15.42;66.47
80743;SHT31;70142;50.894;6.052;2024-02-16T04:29:12;15.39;66.34
80743;SHT31;70142;50.894;6.052;2024-02-16T04:31:45;15.32;66.65
80743;SHT31;70142;50.894;6.052;2024-02-16T04:34:18;15.23;66.81
80743;SHT31;70142;50.894;6.052;2024-02-16T04:36:52;15.26;66.92
80743;SHT31;70142;50.894;6.052;2024-02-16T04:39:25;15.25;66.92
80743;SHT31;70142;50.894;6.052;2024-02-16T04:41:59;15.26;67.10
80743;SHT31;70142;50.894;6.052;2024-02-16T04:44:36;15.30;66.77
80743;SHT31;70142;50.894;6.052;2024-02-16T04:47:11;15.20;66.98
80743;SHT31;70142;50.894;6.052;2024-02-16T04:49:45;15.26;67.11
80743;SHT31;70142;50.894;6.052;2024-02-16T04:52:18;15.19;67.04
80743;SHT31;70142;50.894;6.052;2024-02-16T04:54:51;15.33;66.86
80743;SHT31;70142;50.894;6.052;2024-02-16T04:57:26;15.32;66.89
80743;SHT31;70142;50.894;6.052;2024-02-16T05:00:03;15.25;66.81
80743;SHT31;70142;50.894;6.052;2024-02-16T05:02:36;15.33;66.78
80743;SHT31;70142;50.894;6.052;2024-02-16T05:05:09;15.36;66.66
80743;SHT31;70142;50.894;6.052;2024-02-16T05:07:42;15.33;66.69
80743;SHT31;70142;50.894;6.052;2024-02-16T05:10:16;15.42;66.83
80743;SHT31;70142;50.894;6.052;2024-02-16T05:12:50;15.39;66.62
80743;SHT31;70142;50.894;6.052;2024-02-16T05:15:23;15.39;66.87
80743;SHT31;70142;50.894;6.052;2024-02-16T05:17:57;15.39;66.78
80743;SHT31;70142;50.894;6.052;2024-02-16T05:20:31;15.39;66.86
80743;SHT31;70142;50.894;6.052;2024-02-16T05:23:04;15.50;66.47
80743;SHT31;70142;50.894;6.052;2024-02-16T05:25:37;15.50;66.41
80743;SHT31;70142;50.894;6.052;2024-02-16T05:28:11;15.53;66.31
80743;SHT31;70142;50.894;6.052;2024-02-16T05:30:45;15.54;66.55
80743;SHT31;70142;50.894;6.052;2024-02-16T05:33:19;15.56;66.35
80743;SHT31;70142;50.894;6.052;2024-02-16T05:35:52;15.57;66.50
80743;SHT31;70142;50.894;6.052;2024-02-16T05:38:30;15.54;66.37
80743;SHT31;70142;50.894;6.052;2024-02-16T05:41:07;15.61;66.41
80743;SHT31;70142;50.894;6.052;2024-02-16T05:43:44;15.60;66.45
80743;SHT31;70142;50.894;6.052;2024-02-16T05:46:17;15.56;66.69
80743;SHT31;70142;50.894;6.052;2024-02-16T05:48:51;15.51;66.69
80743;SHT31;70142;50.894;6.052;2024-02-16T05:51:24;15.49;66.62
80743;SHT31;70142;50.894;6.052;2024-02-16T05:53:57;15.44;66.74
80743;SHT31;70142;50.894;6.052;2024-02-16T05:56:30;15.56;66.62
80743;SHT31;70142;50.894;6.052;2024-02-16T05:59:06;15.50;66.86
80743;SHT31;70142;50.894;6.052;2024-02-16T06:01:40;15.42;67.16
80743;SHT31;70142;50.894;6.052;2024-02-16T06:04:13;15.38;67.05
80743;SHT31;70142;50.894;6.052;2024-02-16T06:06:47;15.43;67.09
80743;SHT31;70142;50.894;6.052;2024-02-16T06:09:20;15.39;67.19
80743;SHT31;70142;50.894;6.052;2024-02-16T06:11:53;15.33;67.10
80743;SHT31;70142;50.894;6.052;2024-02-16T06:14:28;15.28;67.54
80743;SHT31;70142;50.894;6.052;2024-02-16T06:17:01;15.23;67.67
80743;SHT31;70142;50.894;6.052;2024-02-16T06:19:34;15.13;68.15
80743;SHT31;70142;50.894;6.052;2024-02-16T06:22:08;15.15;68.47
80743;SHT31;70142;50.894;6.052;2024-02-16T06:24:41;15.12;68.64
80743;SHT31;70142;50.894;6.052;2024-02-16T06:27:14;15.12;68.35
80743;SHT31;70142;50.894;6.052;2024-02-16T06:29:50;15.09;68.47
80743;SHT31;70142;50.894;6.052;2024-02-16T06:32:23;15.05;68.58
80743;SHT31;70142;50.894;6.052;2024-02-16T06:34:56;15.02;68.67
80743;SHT31;70142;50.894;6.052;2024-02-16T06:37:30;15.06;68.65
80743;SHT31;70142;50.894;6.052;2024-02-16T06:40:04;15.02;68.72
80743;SHT31;70142;50.894;6.052;2024-02-16T06:42:38;14.95;69.09
80743;SHT31;70142;50.894;6.052;2024-02-16T06:45:13;14.88;68.87
80743;SHT31;70142;50.894;6.052;2024-02-16T06:47:46;14.92;69.01
80743;SHT31;70142;50.894;6.052;2024-02-16T06:50:19;14.95;69.23
80743;SHT31;70142;50.894;6.052;2024-02-16T06:52:52;14.89;69.14
80743;SHT31;70142;50.894;6.052;2024-02-16T06:55:27;14.91;69.14
80743;SHT31;70142;50.894;6.052;2024-02-16T06:58:00;14.88;69.14
80743;SHT31;70142;50.894;6.052;2024-02-16T07:00:36;14.96;69.06
80743;SHT31;70142;50.894;6.052;2024-02-16T07:03:09;14.91;68.91
80743;SHT31;70142;50.894;6.052;2024-02-16T07:05:43;14.93;69.23
80743;SHT31;70142;50.894;6.052;2024-02-16T07:08:16;14.98;69.06
80743;SHT31;70142;50.894;6.052;2024-02-16T07:10:49;14.98;69.08
80743;SHT31;70142;50.894;6.052;2024-02-16T07:13:23;14.99;69.01
80743;SHT31;70142;50.894;6.052;2024-02-16T07:15:58;15.08;68.88
80743;SHT31;70142;50.894;6.052;2024-02-16T07:18:31;15.05;68.82
80743;SHT31;70142;50.894;6.052;2024-02-16T07:21:05;15.00;69.11
80743;SHT31;70142;50.894;6.052;2024-02-16T07:23:38;15.06;68.95
80743;SHT31;70142;50.894;6.052;2024-02-16T07:26:11;15.15;68.76
80743;SHT31;70142;50.894;6.052;2024-02-16T07:28:46;15.06;68.86
80743;SHT31;70142;50.894;6.052;2024-02-16T07:31:20;15.10;68.91
80743;SHT31;70142;50.894;6.052;2024-02-16T07:33:53;15.06;69.17
80743;SHT31;70142;50.894;6.052;2024-02-16T07:36:27;15.09;69.26
80743;SHT31;70142;50.894;6.052;2024-02-16T07:39:00;15.19;69.15
80743;SHT31;70142;50.894;6.052;2024-02-16T07:41:33;15.22;68.92
80743;SHT31;70142;50.894;6.052;2024-02-16T07:44:06;15.28;68.86
80743;SHT31;70142;50.894;6.052;2024-02-16T07:46:41;15.26;68.92
80743;SHT31;70142;50.894;6.052;2024-02-16T07:49:17;15.33;68.77
80743;SHT31;70142;50.894;6.052;2024-02-16T07:51:51;15.38;68.61
80743;SHT31;70142;50.894;6.052;2024-02-16T07:54:24;15.38;68.59
80743;SHT31;70142;50.894;6.052;2024-02-16T07:56:57;15.46;68.53
80743;SHT31;70142;50.894;6.052;2024-02-16T07:59:33;15.47;68.53
80743;SHT31;70142;50.894;6.052;2024-02-16T08:02:07;15.51;68.47
80743;SHT31;70142;50.894;6.052;2024-02-16T08:04:41;15.57;68.39
80743;SHT31;70142;50.894;6.052;2024-02-16T08:07:14;15.60;68.26
80743;SHT31;70142;50.894;6.052;2024-02-16T08:09:48;15.64;68.20
80743;SHT31;70142;50.894;6.052;2024-02-16T08:12:22;15.63;68.27
80743;SHT31;70142;50.894;6.052;2024-02-16T08:14:57;15.63;68.39
80743;SHT31;70142;50.894;6.052;2024-02-16T08:17:33;15.60;68.45
80743;SHT31;70142;50.894;6.052;2024-02-16T08:20:07;15.67;68.40
80743;SHT31;70142;50.894;6.052;2024-02-16T08:22:43;15.63;68.51
80743;SHT31;70142;50.894;6.052;2024-02-16T08:25:16;15.61;68.65
80743;SHT31;70142;50.894;6.052;2024-02-16T08:27:50;15.61;68.89
80743;SHT31;70142;50.894;6.052;2024-02-16T08:30:23;15.64;68.87
80743;SHT31;70142;50.894;6.052;2024-02-16T08:32:58;15.56;69.02
80743;SHT31;70142;50.894;6.052;2024-02-16T08:35:32;15.53;68.93
80743;SHT31;70142;50.894;6.052;2024-02-16T08:38:05;15.67;69.01
80743;SHT31;70142;50.894;6.052;2024-02-16T08:40:42;15.71;68.92
80743;SHT31;70142;50.894;6.052;2024-02-16T08:43:17;15.73;68.84
80743;SHT31;70142;50.894;6.052;2024-02-16T08:45:50;15.77;68.94
80743;SHT31;70142;50.894;6.052;2024-02-16T08:48:25;15.71;68.94
80743;SHT31;70142;50.894;6.052;2024-02-16T08:50:59;15.87;68.81
80743;SHT31;70142;50.894;6.052;2024-02-16T08:53:32;15.89;68.66
80743;SHT31;70142;50.894;6.052;2024-02-16T08:56:09;16.00;68.44
80743;SHT31;70142;50.894;6.052;2024-02-16T08:58:43;16.03;68.34
80743;SHT31;70142;50.894;6.052;2024-02-16T09:01:16;15.97;68.58
80743;SHT31;70142;50.894;6.052;2024-02-16T09:03:51;15.96;68.52
80743;SHT31;70142;50.894;6.052;2024-02-16T09:06:27;15.90;69.11
80743;SHT31;70142;50.894;6.052;2024-02-16T09:09:01;15.94;68.72
80743;SHT31;70142;50.894;6.052;2024-02-16T09:11:34;16.03;68.77
80743;SHT31;70142;50.894;6.052;2024-02-16T09:14:07;15.96;68.99
80743;SHT31;70142;50.894;6.052;2024-02-16T09:16:41;16.01;68.82
80743;SHT31;70142;50.894;6.052;2024-02-16T09:19:15;15.96;69.04
80743;SHT31;70142;50.894;6.052;2024-02-16T09:21:49;16.03;68.98
80743;SHT31;70142;50.894;6.052;2024-02-16T09:24:25;16.07;68.81
80743;SHT31;70142;50.894;6.052;2024-02-16T09:27:01;16.17;69.23
80743;SHT31;70142;50.894;6.052;2024-02-16T09:29:36;16.24;68.56
80743;SHT31;70142;50.894;6.052;2024-02-16T09:32:09;16.20;68.61
80743;SHT31;70142;50.894;6.052;2024-02-16T09:34:44;16.28;68.64
80743;SHT31;70142;50.894;6.052;2024-02-16T09:37:17;16.31;68.74
80743;SHT31;70142;50.894;6.052;2024-02-16T09:39:50;16.24;69.24
80743;SHT31;70142;50.894;6.052;2024-02-16T09:42:24;16.34;68.75
80743;SHT31;70142;50.894;6.052;2024-02-16T09:44:59;16.34;68.70
80743;SHT31;70142;50.894;6.052;2024-02-16T09:47:33;16.21;69.13
80743;SHT31;70142;50.894;6.052;2024-02-16T09:50:09;16.18;69.20
80743;SHT31;70142;50.894;6.052;2024-02-16T09:52:47;16.26;69.15
80743;SHT31;70142;50.894;6.052;2024-02-16T09:55:21;16.26;69.26
80743;SHT31;70142;50.894;6.052;2024-02-16T09:58:00;16.31;69.17
80743;SHT31;70142;50.894;6.052;2024-02-16T10:00:34;16.24;69.34
80743;SHT31;70142;50.894;6.052;2024-02-16T10:03:07;16.29;69.46
80743;SHT31;70142;50.894;6.052;2024-02-16T10:05:43;16.36;69.36
80743;SHT31;70142;50.894;6.052;2024-02-16T10:08:17;16.49;69.16
80743;SHT31;70142;50.894;6.052;2024-02-16T10:11:00;16.61;68.81
80743;SHT31;70142;50.894;6.052;2024-02-16T10:13:33;16.55;68.80
80743;SHT31;70142;50.894;6.052;2024-02-16T10:16:08;16.58;69.17
80743;SHT31;70142;50.894;6.052;2024-02-16T10:18:43;16.41;68.94
80743;SHT31;70142;50.894;6.052;2024-02-16T10:21:26;16.44;69.45
80743;SHT31;70142;50.894;6.052;2024-02-16T10:24:03;16.44;69.32
80743;SHT31;70142;50.894;6.052;2024-02-16T10:26:38;16.51;69.19
80743;SHT31;70142;50.894;6.052;2024-02-16T10:29:12;16.52;68.96
80743;SHT31;70142;50.894;6.052;2024-02-16T10:31:48;16.62;69.35
80743;SHT31;70142;50.894;6.052;2024-02-16T10:34:24;16.66;69.25
80743;SHT31;70142;50.894;6.052;2024-02-16T10:37:01;16.73;68.92
80743;SHT31;70142;50.894;6.052;2024-02-16T10:39:35;16.83;69.03
80743;SHT31;70142;50.894;6.052;2024-02-16T10:42:12;16.79;68.82
80743;SHT31;70142;50.894;6.052;2024-02-16T10:44:47;16.68;69.04
80743;SHT31;70142;50.894;6.052;2024-02-16T10:47:21;16.47;69.82
80743;SHT31;70142;50.894;6.052;2024-02-16T10:49:55;16.52;69.84
80743;SHT31;70142;50.894;6.052;2024-02-16T10:52:31;16.51;70.03
80743;SHT31;70142;50.894;6.052;2024-02-16T10:55:06;16.38;70.16
80743;SHT31;70142;50.894;6.052;2024-02-16T10:57:41;16.35;70.60
80743;SHT31;70142;50.894;6.052;2024-02-16T11:00:16;16.41;70.27
80743;SHT31;70142;50.894;6.052;2024-02-16T11:02:54;16.35;70.51
80743;SHT31;70142;50.894;6.052;2024-02-16T11:05:32;16.44;70.27
80743;SHT31;70142;50.894;6.052;2024-02-16T11:08:13;16.40;70.46
80743;SHT31;70142;50.894;6.052;2024-02-16T11:11:00;16.21;71.00
80743;SHT31;70142;50.894;6.052;2024-02-16T11:13:36;16.21;71.11
80743;SHT31;70142;50.894;6.052;2024-02-16T11:16:09;16.18;71.40
80743;SHT31;70142;50.894;6.052;2024-02-16T11:18:45;16.14;71.39
80743;SHT31;70142;50.894;6.052;2024-02-16T11:21:21;16.18;71.28
80743;SHT31;70142;50.894;6.052;2024-02-16T11:24:06;16.25;71.25
80743;SHT31;70142;50.894;6.052;2024-02-16T11:26:42;16.29;71.00
80743;SHT31;70142;50.894;6.052;2024-02-16T11:29:18;16.20;71.41
80743;SHT31;70142;50.894;6.052;2024-02-16T11:31:51;16.17;71.94
80743;SHT31;70142;50.894;6.052;2024-02-16T11:34:24;16.22;71.63
80743;SHT31;70142;50.894;6.052;2024-02-16T11:36:59;16.25;71.54
80743;SHT31;70142;50.894;6.052;2024-02-16T11:39:35;16.24;71.59
80743;SHT31;70142;50.894;6.052;2024-02-16T11:42:12;16.22;71.93
80743;SHT31;70142;50.894;6.052;2024-02-16T11:44:51;16.21;72.20
80743;SHT31;70142;50.894;6.052;2024-02-16T11:47:25;16.17;72.28
80743;SHT31;70142;50.894;6.052;2024-02-16T11:50:02;16.10;72.62
80743;SHT31;70142;50.894;6.052;2024-02-16T11:52:37;15.98;73.31
80743;SHT31;70142;50.894;6.052;2024-02-16T11:55:12;15.87;73.65
80743;SHT31;70142;50.894;6.052;2024-02-16T11:57:47;15.93;73.93
80743;SHT31;70142;50.894;6.052;2024-02-16T12:00:22;15.86;73.95
80743;SHT31;70142;50.894;6.052;2024-02-16T12:02:59;15.69;74.97
80743;SHT31;70142;50.894;6.052;2024-02-16T12:05:33;15.63;75.54
80743;SHT31;70142;50.894;6.052;2024-02-16T12:08:09;15.60;76.37
80743;SHT31;70142;50.894;6.052;2024-02-16T12:10:46;15.57;76.68
80743;SHT31;70142;50.894;6.052;2024-02-16T12:13:20;15.56;76.84
80743;SHT31;70142;50.894;6.052;2024-02-16T12:15:53;15.67;76.88
80743;SHT31;70142;50.894;6.052;2024-02-16T12:18:28;15.70;76.95
80743;SHT31;70142;50.894;6.052;2024-02-16T12:21:03;15.59;77.71
80743;SHT31;70142;50.894;6.052;2024-02-16T12:23:37;15.44;78.70
80743;SHT31;70142;50.894;6.052;2024-02-16T12:26:12;15.28;79.32
80743;SHT31;70142;50.894;6.052;2024-02-16T12:28:48;15.32;79.43
80743;SHT31;70142;50.894;6.052;2024-02-16T12:31:22;15.22;79.75
80743;SHT31;70142;50.894;6.052;2024-02-16T12:33:55;15.18;79.91
80743;SHT31;70142;50.894;6.052;2024-02-16T12:36:28;15.18;80.06
80743;SHT31;70142;50.894;6.052;2024-02-16T12:39:02;15.19;80.11
80743;SHT31;70142;50.894;6.052;2024-02-16T12:41:37;15.16;80.38
80743;SHT31;70142;50.894;6.052;2024-02-16T12:44:10;15.16;80.60
80743;SHT31;70142;50.894;6.052;2024-02-16T12:46:43;15.18;80.47
80743;SHT31;70142;50.894;6.052;2024-02-16T12:49:16;15.23;80.10
80743;SHT31;70142;50.894;6.052;2024-02-16T12:51:53;15.10;80.78
80743;SHT31;70142;50.894;6.052;2024-02-16T12:54:27;15.12;81.34
80743;SHT31;70142;50.894;6.052;2024-02-16T12:57:02;14.89;82.06
80743;SHT31;70142;50.894;6.052;2024-02-16T12:59:36;14.85;82.60
80743;SHT31;70142;50.894;6.052;2024-02-16T13:02:09;14.78;82.83
80743;SHT31;70142;50.894;6.052;2024-02-16T13:04:42;14.78;83.48
80743;SHT31;70142;50.894;6.052;2024-02-16T13:07:16;14.71;83.61
80743;SHT31;70142;50.894;6.052;2024-02-16T13:09:49;14.69;83.79
80743;SHT31;70142;50.894;6.052;2024-02-16T13:12:24;14.67;84.13
80743;SHT31;70142;50.894;6.052;2024-02-16T13:14:57;14.69;84.26
80743;SHT31;70142;50.894;6.052;2024-02-16T13:17:44;14.67;84.48
80743;SHT31;70142;50.894;6.052;2024-02-16T13:20:17;14.61;84.47
80743;SHT31;70142;50.894;6.052;2024-02-16T13:22:51;14.57;84.90
80743;SHT31;70142;50.894;6.052;2024-02-16T13:25:24;14.52;85.31
80743;SHT31;70142;50.894;6.052;2024-02-16T13:27:59;14.45;85.27
80743;SHT31;70142;50.894;6.052;2024-02-16T13:30:32;14.44;85.45
80743;SHT31;70142;50.894;6.052;2024-02-16T13:33:05;14.44;85.62
80743;SHT31;70142;50.894;6.052;2024-02-16T13:35:41;14.40;85.77
80743;SHT31;70142;50.894;6.052;2024-02-16T13:38:14;14.40;85.92
80743;SHT31;70142;50.894;6.052;2024-02-16T13:40:48;14.34;86.00
80743;SHT31;70142;50.894;6.052;2024-02-16T13:43:23;14.33;86.10
80743;SHT31;70142;50.894;6.052;2024-02-16T13:45:56;14.30;86.08
80743;SHT31;70142;50.894;6.052;2024-02-16T13:48:30;14.40;86.18
80743;SHT31;70142;50.894;6.052;2024-02-16T13:51:04;14.31;85.95
80743;SHT31;70142;50.894;6.052;2024-02-16T13:53:39;14.25;86.14
80743;SHT31;70142;50.894;6.052;2024-02-16T13:56:12;14.25;86.47
80743;SHT31;70142;50.894;6.052;2024-02-16T13:58:47;14.37;86.46
80743;SHT31;70142;50.894;6.052;2024-02-16T14:01:20;14.48;86.04
80743;SHT31;70142;50.894;6.052;2024-02-16T14:03:55;14.51;85.80
80743;SHT31;70142;50.894;6.052;2024-02-16T14:06:29;14.51;85.97
80743;SHT31;70142;50.894;6.052;2024-02-16T14:09:03;14.42;85.93
80743;SHT31;70142;50.894;6.052;2024-02-16T14:11:50;14.33;86.33
80743;SHT31;70142;50.894;6.052;2024-02-16T14:14:29;14.27;85.97
80743;SHT31;70142;50.894;6.052;2024-02-16T14:17:09;14.24;86.10
80743;SHT31;70142;50.894;6.052;2024-02-16T14:19:42;14.20;86.25
80743;SHT31;70142;50.894;6.052;2024-02-16T14:22:16;14.25;86.08
80743;SHT31;70142;50.894;6.052;2024-02-16T14:24:49;14.04;86.22
80743;SHT31;70142;50.894;6.052;2024-02-16T14:27:22;14.04;86.53
80743;SHT31;70142;50.894;6.052;2024-02-16T14:29:58;14.06;86.41
80743;SHT31;70142;50.894;6.052;2024-02-16T14:32:32;13.97;86.57
80743;SHT31;70142;50.894;6.052;2024-02-16T14:35:06;13.93;86.63
80743;SHT31;70142;50.894;6.052;2024-02-16T14:37:39;13.86;86.81
80743;SHT31;70142;50.894;6.052;2024-02-16T14:40:13;13.89;87.18
80743;SHT31;70142;50.894;6.052;2024-02-16T14:42:46;13.86;87.01
80743;SHT31;70142;50.894;6.052;2024-02-16T14:45:20;13.77;87.31
80743;SHT31;70142;50.894;6.052;2024-02-16T14:47:54;13.63;87.47
80743;SHT31;70142;50.894;6.052;2024-02-16T14:50:29;13.67;87.62
80743;SHT31;70142;50.894;6.052;2024-02-16T14:53:06;13.70;87.82
80743;SHT31;70142;50.894;6.052;2024-02-16T14:55:42;13.73;87.45
80743;SHT31;70142;50.894;6.052;2024-02-16T14:58:15;13.74;87.61
80743;SHT31;70142;50.894;6.052;2024-02-16T15:00:50;13.72;87.51
80743;SHT31;70142;50.894;6.052;2024-02-16T15:03:23;13.77;87.30
80743;SHT31;70142;50.894;6.052;2024-02-16T15:05:58;13.74;87.34
80743;SHT31;70142;50.894;6.052;2024-02-16T15:08:31;13.65;87.60
80743;SHT31;70142;50.894;6.052;2024-02-16T15:11:04;13.61;87.61
80743;SHT31;70142;50.894;6.052;2024-02-16T15:13:37;13.59;87.89
80743;SHT31;70142;50.894;6.052;2024-02-16T15:16:12;13.58;87.84
80743;SHT31;70142;50.894;6.052;2024-02-16T15:18:45;13.53;87.89
80743;SHT31;70142;50.894;6.052;2024-02-16T15:21:18;13.43;87.96
80743;SHT31;70142;50.894;6.052;2024-02-16T15:23:52;13.35;87.92
80743;SHT31;70142;50.894;6.052;2024-02-16T15:26:25;13.35;88.20
80743;SHT31;70142;50.894;6.052;2024-02-16T15:28:58;13.32;88.13
80743;SHT31;70142;50.894;6.052;2024-02-16T15:31:33;13.41;88.01
80743;SHT31;70142;50.894;6.052;2024-02-16T15:34:06;13.26;87.82
80743;SHT31;70142;50.894;6.052;2024-02-16T15:36:40;13.32;87.89
80743;SHT31;70142;50.894;6.052;2024-02-16T15:39:14;13.28;87.57
80743;SHT31;70142;50.894;6.052;2024-02-16T15:41:47;13.23;87.50
80743;SHT31;70142;50.894;6.052;2024-02-16T15:44:23;13.32;87.43
80743;SHT31;70142;50.894;6.052;2024-02-16T15:46:57;13.41;87.34
80743;SHT31;70142;50.894;6.052;2024-02-16T15:49:30;13.36;87.41
80743;SHT31;70142;50.894;6.052;2024-02-16T15:52:04;13.26;87.40
80743;SHT31;70142;50.894;6.052;2024-02-16T15:54:39;13.23;87.30
80743;SHT31;70142;50.894;6.052;2024-02-16T15:57:13;13.29;87.44
80743;SHT31;70142;50.894;6.052;2024-02-16T15:59:47;13.34;86.95
80743;SHT31;70142;50.894;6.052;2024-02-16T16:02:21;13.38;86.82
80743;SHT31;70142;50.894;6.052;2024-02-16T16:04:54;13.43;86.04
80743;SHT31;70142;50.894;6.052;2024-02-16T16:07:28;13.53;85.66
80743;SHT31;70142;50.894;6.052;2024-02-16T16:10:01;13.55;85.19
80743;SHT31;70142;50.894;6.052;2024-02-16T16:12:34;13.46;85.30
80743;SHT31;70142;50.894;6.052;2024-02-16T16:15:08;13.41;85.31